Time;durP1;ratioP1;P1;durP2;ratioP2;P2;SDS_P1;SDS_P2;PMS_P1;PMS_P2;Temp;Humidity;BMP_temperature;BMP_pressure;BME280_temperature;BME280_humidity;BME280_pressure;Samples;Min_cycle;Max_cycle;Signal;HPM_P1;HPM_P2
2024/04/03 00:00:46;;;;;;;;;;;;;;;;;;5079161;28;19951;-64
2024/04/03 00:03:12;;;;;;;;;;;;;;;;;;5074540;28;20363;-66
2024/04/03 00:05:38;;;;;;;;;;;;;;;;;;5075395;28;20007;-64
2024/04/03 00:08:03;;;;;;;;;;;;;;;;;;5081206;28;19920;-64
2024/04/03 00:10:29;;;;;;;;;;;;;;;;;;5074134;28;19928;-65
2024/04/03 00:12:55;;;;;;;;;;;;;;;;;;5080289;28;20364;-64
2024/04/03 00:15:21;;;;;;;;;;;;;;;;;;5081249;28;19943;-64
2024/04/03 00:17:47;;;;;;;;;;;;;;;;;;5086627;28;19920;-64
2024/04/03 00:20:13;;;;;;;;;;;;;;;;;;5089287;28;20375;-64
2024/04/03 00:22:40;;;;;;;;;;;;;;;;;;5102427;28;20513;-64
2024/04/03 00:25:05;;;;;;;;;;;;;;;;;;5091069;28;19924;-64
2024/04/03 00:27:31;;;;;;;;;;;;;;;;;;5080836;28;19925;-64
2024/04/03 00:29:57;;;;;;;;;;;;;;;;;;5083040;28;20263;-64
2024/04/03 00:32:23;;;;;;;;;;;;;;;;;;5086087;28;19920;-64
2024/04/03 00:34:49;;;;;;;;;;;;;;;;;;5086289;28;20303;-64
2024/04/03 00:37:15;;;;;;;;;;;;;;;;;;5082514;28;19935;-64
2024/04/03 00:39:41;;;;;;;;;;;;;;;;;;5073313;28;20378;-64
2024/04/03 00:42:07;;;;;;;;;;;;;;;;;;5069345;28;19934;-64
2024/04/03 00:44:34;;;;;;;;;;;;;;;;;;5083809;28;19920;-63
2024/04/03 00:47:02;;;;;;;;;;;;;;;;;;5079489;28;19925;-64
2024/04/03 00:49:28;;;;;;;;;;;;;;;;;;5077720;28;19963;-64
2024/04/03 00:51:54;;;;;;;;;;;;;;;;;;5088121;28;19947;-64
2024/04/03 00:54:20;;;;;;;;;;;;;;;;;;5075265;28;20338;-64
2024/04/03 00:56:45;;;;;;;;;;;;;;;;;;5068710;28;19958;-63
2024/04/03 00:59:12;;;;;;;;;;;;;;;;;;5075497;28;19952;-64
2024/04/03 01:01:38;;;;;;;;;;;;;;;;;;5070056;28;19970;-64
2024/04/03 01:04:04;;;;;;;;;;;;;;;;;;5072088;28;19924;-65
2024/04/03 01:06:29;;;;;;;;;;;;;;;;;;5075256;28;19941;-64
2024/04/03 01:08:55;;;;;;;;;;;;;;;;;;5083755;28;19920;-64
2024/04/03 01:11:21;;;;;;;;;;;;;;;;;;5080599;28;19924;-64
2024/04/03 01:13:47;;;;;;;;;;;;;;;;;;5077876;28;19949;-64
2024/04/03 01:16:13;;;;;;;;;;;;;;;;;;5089352;28;20379;-65
2024/04/03 01:18:39;;;;;;;;;;;;;;;;;;5085106;28;19924;-65
2024/04/03 01:21:05;;;;;;;;;;;;;;;;;;5090951;28;19924;-65
2024/04/03 01:23:31;;;;;;;;;;;;;;;;;;5085241;28;19928;-65
2024/04/03 01:25:57;;;;;;;;;;;;;;;;;;5088423;28;19924;-65
2024/04/03 01:28:23;;;;;;;;;;;;;;;;;;5088237;28;20394;-65
2024/04/03 01:30:48;;;;;;;;;;;;;;;;;;5084149;28;19920;-65
2024/04/03 01:33:14;;;;;;;;;;;;;;;;;;5087594;28;19924;-65
2024/04/03 01:35:40;;;;;;;;;;;;;;;;;;5080900;28;19931;-64
2024/04/03 01:38:06;;;;;;;;;;;;;;;;;;5076520;28;19971;-64
2024/04/03 01:40:32;;;;;;;;;;;;;;;;;;5086355;28;19925;-64
2024/04/03 01:42:58;;;;;;;;;;;;;;;;;;5072441;28;19924;-65
2024/04/03 01:45:24;;;;;;;;;;;;;;;;;;5080132;28;20368;-64
2024/04/03 01:47:50;;;;;;;;;;;;;;;;;;5071025;28;19921;-64
2024/04/03 01:50:16;;;;;;;;;;;;;;;;;;5085186;28;19921;-65
2024/04/03 01:52:42;;;;;;;;;;;;;;;;;;5071795;28;19924;-65
2024/04/03 01:55:07;;;;;;;;;;;;;;;;;;5064963;28;20364;-64
2024/04/03 01:57:33;;;;;;;;;;;;;;;;;;5062824;28;19924;-64
2024/04/03 01:59:59;;;;;;;;;;;;;;;;;;5083426;28;19974;-64
2024/04/03 02:02:25;;;;;;;;;;;;;;;;;;5086159;28;20454;-65
2024/04/03 02:04:51;;;;;;;;;;;;;;;;;;5077509;28;19952;-65
2024/04/03 02:07:17;;;;;;;;;;;;;;;;;;5068133;28;19963;-65
2024/04/03 02:09:43;;;;;;;;;;;;;;;;;;5076373;28;19958;-65
2024/04/03 02:12:09;;;;;;;;;;;;;;;;;;5050176;28;20117;-64
2024/04/03 02:14:35;;;;;;;;;;;;;;;;;;5078014;28;19924;-64
2024/04/03 02:17:01;;;;;;;;;;;;;;;;;;5071270;28;19930;-65
2024/04/03 02:19:27;;;;;;;;;;;;;;;;;;5070888;28;19963;-65
2024/04/03 02:21:53;;;;;;;;;;;;;;;;;;5074781;28;19990;-65
2024/04/03 02:24:19;;;;;;;;;;;;;;;;;;5080924;28;20528;-65
2024/04/03 02:26:45;;;;;;;;;;;;;;;;;;5088060;22;19970;-66
2024/04/03 02:29:11;;;;;;;;;;;;;;;;;;5074681;28;19978;-66
2024/04/03 02:31:36;;;;;;;;;;;;;;;;;;5066644;28;19924;-66
2024/04/03 02:34:02;;;;;;;;;;;;;;;;;;5067759;28;20067;-66
2024/04/03 02:36:28;;;;;;;;;;;;;;;;;;5075576;28;20321;-66
2024/04/03 02:38:54;;;;;;;;;;;;;;;;;;5075995;28;19928;-66
2024/04/03 02:41:20;;;;;;;;;;;;;;;;;;5070624;28;19935;-66
2024/04/03 02:43:46;;;;;;;;;;;;;;;;;;5075781;28;19931;-66
2024/04/03 02:46:12;;;;;;;;;;;;;;;;;;5075692;28;19943;-66
2024/04/03 02:48:38;;;;;;;;;;;;;;;;;;5060241;28;19920;-66
2024/04/03 02:51:04;;;;;;;;;;;;;;;;;;5073713;28;19931;-66
2024/04/03 02:53:30;;;;;;;;;;;;;;;;;;5063473;28;19925;-66
2024/04/03 02:55:55;;;;;;;;;;;;;;;;;;5073837;28;20007;-66
2024/04/03 02:58:21;;;;;;;;;;;;;;;;;;5073046;28;19970;-65
2024/04/03 03:00:47;;;;;;;;;;;;;;;;;;5072347;28;20011;-66
2024/04/03 03:03:13;;;;;;;;;;;;;;;;;;5074054;28;19924;-66
2024/04/03 03:05:39;;;;;;;;;;;;;;;;;;5072378;28;19978;-66
2024/04/03 03:08:05;;;;;;;;;;;;;;;;;;5074287;28;19956;-66
2024/04/03 03:10:31;;;;;;;;;;;;;;;;;;5070739;28;19940;-66
2024/04/03 03:12:59;;;;;;;;;;;;;;;;;;5067225;28;19925;-66
2024/04/03 03:15:25;;;;;;;;;;;;;;;;;;5073745;28;19924;-66
2024/04/03 03:17:51;;;;;;;;;;;;;;;;;;5073740;28;19948;-66
2024/04/03 03:20:17;;;;;;;;;;;;;;;;;;5074470;28;20341;-66
2024/04/03 03:22:43;;;;;;;;;;;;;;;;;;5074441;28;19989;-66
2024/04/03 03:25:09;;;;;;;;;;;;;;;;;;5075462;28;19930;-66
2024/04/03 03:27:35;;;;;;;;;;;;;;;;;;5075439;28;20058;-66
2024/04/03 03:30:01;;;;;;;;;;;;;;;;;;5072134;28;20050;-66
2024/04/03 03:32:27;;;;;;;;;;;;;;;;;;5071031;28;19925;-66
2024/04/03 03:34:52;;;;;;;;;;;;;;;;;;5073820;28;19928;-66
2024/04/03 03:37:18;;;;;;;;;;;;;;;;;;5071787;28;19924;-66
2024/04/03 03:39:44;;;;;;;;;;;;;;;;;;5073349;28;19967;-66
2024/04/03 03:42:10;;;;;;;;;;;;;;;;;;5064679;28;20001;-66
2024/04/03 03:44:36;;;;;;;;;;;;;;;;;;5069343;28;20034;-67
2024/04/03 03:47:02;;;;;;;;;;;;;;;;;;5069704;28;19927;-66
2024/04/03 03:55:00;;;;;;;;;;;;;;;;;;5070524;28;19924;-66
2024/04/03 03:57:26;;;;;;;;;;;;;;;;;;5060453;28;19931;-66
2024/04/03 03:59:52;;;;;;;;;;;;;;;;;;5056723;28;19924;-67
2024/04/03 04:02:20;;;;;;;;;;;;;;;;;;5068692;28;19931;-66
2024/04/03 04:04:46;;;;;;;;;;;;;;;;;;5063658;28;19921;-66
2024/04/03 04:07:12;;;;;;;;;;;;;;;;;;5063241;28;19936;-66
2024/04/03 04:09:38;;;;;;;;;;;;;;;;;;5070981;28;19963;-66
2024/04/03 04:12:04;;;;;;;;;;;;;;;;;;5063730;28;19947;-66
2024/04/03 04:14:29;;;;;;;;;;;;;;;;;;5068241;28;20478;-66
2024/04/03 04:16:55;;;;;;;;;;;;;;;;;;5065857;28;19920;-66
2024/04/03 04:19:21;;;;;;;;;;;;;;;;;;5068580;28;19920;-67
2024/04/03 04:21:47;;;;;;;;;;;;;;;;;;5072583;28;20264;-67
2024/04/03 04:24:14;;;;;;;;;;;;;;;;;;5070216;28;20291;-67
2024/04/03 04:26:40;;;;;;;;;;;;;;;;;;5071280;28;19930;-67
2024/04/03 04:29:06;;;;;;;;;;;;;;;;;;5072532;28;20003;-67
2024/04/03 04:31:32;;;;;;;;;;;;;;;;;;5072226;28;19956;-67
2024/04/03 04:33:58;;;;;;;;;;;;;;;;;;5071949;28;20046;-67
2024/04/03 04:36:24;;;;;;;;;;;;;;;;;;5071594;28;19924;-67
2024/04/03 04:38:50;;;;;;;;;;;;;;;;;;5071106;28;21776;-67
2024/04/03 04:41:17;;;;;;;;;;;;;;;;;;5066442;28;19928;-67
2024/04/03 04:43:43;;;;;;;;;;;;;;;;;;5070772;28;19982;-66
2024/04/03 04:46:09;;;;;;;;;;;;;;;;;;5069258;28;19928;-66
2024/04/03 04:48:35;;;;;;;;;;;;;;;;;;5072344;28;20391;-67
2024/04/03 04:51:01;;;;;;;;;;;;;;;;;;5072118;28;19925;-66
2024/04/03 04:53:27;;;;;;;;;;;;;;;;;;5068797;28;19921;-66
2024/04/03 04:55:53;;;;;;;;;;;;;;;;;;5073470;28;20585;-66
2024/04/03 04:58:19;;;;;;;;;;;;;;;;;;5069284;28;19924;-66
2024/04/03 05:00:45;;;;;;;;;;;;;;;;;;5067736;28;19925;-66
2024/04/03 05:03:10;;;;;;;;;;;;;;;;;;5070389;28;20493;-68
2024/04/03 05:05:36;;;;;;;;;;;;;;;;;;5071843;28;19920;-66
2024/04/03 05:08:03;;;;;;;;;;;;;;;;;;5072310;28;19920;-66
2024/04/03 05:10:30;;;;;;;;;;;;;;;;;;5071580;28;19924;-66
2024/04/03 05:12:56;;;;;;;;;;;;;;;;;;5063905;28;19921;-68
2024/04/03 05:15:22;;;;;;;;;;;;;;;;;;5070957;28;19924;-68
2024/04/03 05:17:48;;;;;;;;;;;;;;;;;;5071703;28;19924;-67
2024/04/03 05:20:14;;;;;;;;;;;;;;;;;;5071645;28;19927;-67
2024/04/03 05:22:39;;;;;;;;;;;;;;;;;;5071075;28;20564;-67
2024/04/03 05:25:07;;;;;;;;;;;;;;;;;;5070586;28;19931;-67
2024/04/03 05:27:33;;;;;;;;;;;;;;;;;;5068665;28;20019;-67
2024/04/03 05:29:59;;;;;;;;;;;;;;;;;;5070557;28;20019;-67
2024/04/03 05:32:25;;;;;;;;;;;;;;;;;;5051730;28;19920;-67
2024/04/03 05:34:51;;;;;;;;;;;;;;;;;;5071033;28;20010;-68
2024/04/03 05:37:17;;;;;;;;;;;;;;;;;;5068452;28;19925;-67
2024/04/03 05:39:43;;;;;;;;;;;;;;;;;;5067219;28;19921;-67
2024/04/03 05:42:09;;;;;;;;;;;;;;;;;;5060573;28;19934;-67
2024/04/03 05:44:35;;;;;;;;;;;;;;;;;;5061827;28;19924;-68
2024/04/03 05:47:01;;;;;;;;;;;;;;;;;;5067974;28;19924;-67
2024/04/03 05:49:27;;;;;;;;;;;;;;;;;;5068071;28;19921;-67
2024/04/03 05:51:53;;;;;;;;;;;;;;;;;;5068346;28;20284;-67
2024/04/03 05:54:19;;;;;;;;;;;;;;;;;;5069016;28;19929;-68
2024/04/03 05:56:45;;;;;;;;;;;;;;;;;;5066279;28;19924;-67
2024/04/03 05:59:11;;;;;;;;;;;;;;;;;;5060007;28;19927;-67
2024/04/03 06:01:36;;;;;;;;;;;;;;;;;;5067328;28;20263;-67
2024/04/03 06:04:02;;;;;;;;;;;;;;;;;;5065310;28;19935;-68
2024/04/03 06:06:28;;;;;;;;;;;;;;;;;;5055440;28;19936;-68
2024/04/03 06:08:54;;;;;;;;;;;;;;;;;;5069190;28;20358;-68
2024/04/03 06:11:21;;;;;;;;;;;;;;;;;;5064725;28;19981;-67
2024/04/03 06:13:47;;;;;;;;;;;;;;;;;;5066548;28;19981;-67
2024/04/03 06:16:13;;;;;;;;;;;;;;;;;;5061520;28;20015;-67
2024/04/03 06:18:38;;;;;;;;;;;;;;;;;;5070429;28;19920;-67
2024/04/03 06:21:04;;;;;;;;;;;;;;;;;;5067888;28;19971;-68
2024/04/03 06:23:30;;;;;;;;;;;;;;;;;;5069447;28;19932;-66
2024/04/03 06:25:56;;;;;;;;;;;;;;;;;;5069273;28;19920;-67
2024/04/03 06:28:22;;;;;;;;;;;;;;;;;;5066465;28;20426;-67
2024/04/03 06:30:48;;;;;;;;;;;;;;;;;;5041505;28;19920;-67
2024/04/03 06:33:14;;;;;;;;;;;;;;;;;;5069617;28;20304;-67
2024/04/03 06:35:40;;;;;;;;;;;;;;;;;;5068942;28;20046;-67
2024/04/03 06:38:06;;;;;;;;;;;;;;;;;;5069135;28;20391;-66
2024/04/03 06:40:32;;;;;;;;;;;;;;;;;;5059680;28;19931;-66
2024/04/03 06:43:00;;;;;;;;;;;;;;;;;;5064135;28;19928;-66
2024/04/03 06:45:26;;;;;;;;;;;;;;;;;;5064895;28;20019;-67
2024/04/03 06:47:52;;;;;;;;;;;;;;;;;;5069840;28;20018;-66
2024/04/03 06:50:18;;;;;;;;;;;;;;;;;;5067427;28;20479;-65
2024/04/03 06:52:44;;;;;;;;;;;;;;;;;;5070976;28;20015;-66
2024/04/03 06:55:10;;;;;;;;;;;;;;;;;;5055698;28;19929;-66
2024/04/03 06:57:36;;;;;;;;;;;;;;;;;;5059411;28;20014;-66
2024/04/03 07:00:02;;;;;;;;;;;;;;;;;;5067737;28;20084;-66
2024/04/03 07:02:28;;;;;;;;;;;;;;;;;;5067585;28;19929;-66
2024/04/03 07:04:54;;;;;;;;;;;;;;;;;;5067846;28;19921;-66
2024/04/03 07:07:20;;;;;;;;;;;;;;;;;;5086599;28;20259;-66
2024/04/03 07:09:46;;;;;;;;;;;;;;;;;;5071173;28;19920;-67
2024/04/03 07:12:12;;;;;;;;;;;;;;;;;;5052639;28;19921;-67
2024/04/03 07:14:38;;;;;;;;;;;;;;;;;;5072976;28;19920;-67
2024/04/03 07:17:04;;;;;;;;;;;;;;;;;;5073493;28;19927;-67
2024/04/03 07:19:30;;;;;;;;;;;;;;;;;;5072275;28;19973;-67
2024/04/03 07:21:55;;;;;;;;;;;;;;;;;;5090514;28;20360;-67
2024/04/03 07:24:22;;;;;;;;;;;;;;;;;;5090283;28;19921;-67
2024/04/03 07:26:48;;;;;;;;;;;;;;;;;;5089912;28;19928;-67
2024/04/03 07:29:14;;;;;;;;;;;;;;;;;;5072879;28;19956;-67
2024/04/03 07:31:41;;;;;;;;;;;;;;;;;;5074574;28;19960;-67
2024/04/03 07:34:07;;;;;;;;;;;;;;;;;;5050466;28;19924;-67
2024/04/03 07:36:32;;;;;;;;;;;;;;;;;;5068786;28;19931;-67
2024/04/03 07:38:58;;;;;;;;;;;;;;;;;;5074242;28;19921;-67
2024/04/03 07:41:24;;;;;;;;;;;;;;;;;;5068020;28;20445;-67
2024/04/03 07:43:50;;;;;;;;;;;;;;;;;;5071687;28;20007;-67
2024/04/03 07:46:16;;;;;;;;;;;;;;;;;;5072185;28;20383;-67
2024/04/03 07:48:42;;;;;;;;;;;;;;;;;;5069740;28;19920;-67
2024/04/03 07:51:08;;;;;;;;;;;;;;;;;;5071830;28;20359;-68
2024/04/03 07:53:34;;;;;;;;;;;;;;;;;;5073259;28;20027;-68
2024/04/03 07:56:00;;;;;;;;;;;;;;;;;;5073192;28;20019;-68
2024/04/03 07:58:26;;;;;;;;;;;;;;;;;;5066029;28;19995;-67
2024/04/03 08:00:52;;;;;;;;;;;;;;;;;;5068448;28;20530;-67
2024/04/03 08:03:17;;;;;;;;;;;;;;;;;;5071575;28;19928;-67
2024/04/03 08:05:44;;;;;;;;;;;;;;;;;;5071179;28;19929;-67
2024/04/03 08:08:10;;;;;;;;;;;;;;;;;;5065362;28;19924;-66
2024/04/03 08:10:36;;;;;;;;;;;;;;;;;;5053291;28;19920;-66
2024/04/03 08:13:02;;;;;;;;;;;;;;;;;;5074876;28;19931;-66
2024/04/03 08:15:28;;;;;;;;;;;;;;;;;;5068216;28;19920;-66
2024/04/03 08:17:53;;;;;;;;;;;;;;;;;;5071737;28;20379;-66
2024/04/03 08:20:19;;;;;;;;;;;;;;;;;;5071757;28;19924;-67
2024/04/03 08:22:45;;;;;;;;;;;;;;;;;;5045821;28;19935;-66
2024/04/03 08:25:11;;;;;;;;;;;;;;;;;;5066503;28;19927;-66
2024/04/03 08:27:37;;;;;;;;;;;;;;;;;;5066632;28;19970;-67
2024/04/03 08:30:03;;;;;;;;;;;;;;;;;;5053579;28;19924;-67
2024/04/03 08:32:29;;;;;;;;;;;;;;;;;;5068918;28;19932;-67
2024/04/03 08:34:55;;;;;;;;;;;;;;;;;;5068121;28;20410;-67
2024/04/03 08:37:21;;;;;;;;;;;;;;;;;;5071821;28;19927;-67
2024/04/03 08:39:47;;;;;;;;;;;;;;;;;;5068776;28;19924;-67
2024/04/03 08:42:13;;;;;;;;;;;;;;;;;;5052660;28;19924;-67
2024/04/03 08:44:40;;;;;;;;;;;;;;;;;;5072456;28;19924;-67
2024/04/03 08:47:05;;;;;;;;;;;;;;;;;;5067946;28;20481;-67
2024/04/03 08:49:31;;;;;;;;;;;;;;;;;;5059498;28;19925;-65
2024/04/03 08:51:58;;;;;;;;;;;;;;;;;;5069502;28;19920;-65
2024/04/03 08:54:24;;;;;;;;;;;;;;;;;;5070278;28;19976;-65
2024/04/03 08:56:50;;;;;;;;;;;;;;;;;;5070739;28;19980;-65
2024/04/03 08:59:16;;;;;;;;;;;;;;;;;;5063377;28;19963;-65
2024/04/03 09:01:42;;;;;;;;;;;;;;;;;;5066469;28;19920;-65
2024/04/03 09:04:08;;;;;;;;;;;;;;;;;;5068610;28;19929;-65
2024/04/03 09:06:33;;;;;;;;;;;;;;;;;;5069403;28;20432;-64
2024/04/03 09:08:59;;;;;;;;;;;;;;;;;;5070919;28;19928;-65
2024/04/03 09:11:25;;;;;;;;;;;;;;;;;;5046614;28;19921;-64
2024/04/03 09:13:51;;;;;;;;;;;;;;;;;;5071101;28;19974;-64
2024/04/03 09:16:17;;;;;;;;;;;;;;;;;;5061718;28;19920;-65
2024/04/03 09:18:43;;;;;;;;;;;;;;;;;;5069867;28;20313;-65
2024/04/03 09:21:09;;;;;;;;;;;;;;;;;;5070219;28;19960;-65
2024/04/03 09:23:35;;;;;;;;;;;;;;;;;;5070486;28;20008;-65
2024/04/03 09:26:01;;;;;;;;;;;;;;;;;;5071106;28;19932;-64
2024/04/03 09:28:27;;;;;;;;;;;;;;;;;;5067539;28;20281;-65
2024/04/03 09:30:53;;;;;;;;;;;;;;;;;;5067821;28;19920;-66
2024/04/03 09:33:19;;;;;;;;;;;;;;;;;;5070989;28;19925;-66
2024/04/03 09:35:45;;;;;;;;;;;;;;;;;;5070502;28;19921;-66
2024/04/03 09:38:10;;;;;;;;;;;;;;;;;;5071580;28;19989;-66
2024/04/03 09:40:36;;;;;;;;;;;;;;;;;;5071916;28;20004;-66
2024/04/03 09:43:02;;;;;;;;;;;;;;;;;;5064506;28;20367;-66
2024/04/03 09:45:28;;;;;;;;;;;;;;;;;;5071058;28;19920;-65
2024/04/03 09:47:54;;;;;;;;;;;;;;;;;;5067031;28;19921;-66
2024/04/03 09:50:20;;;;;;;;;;;;;;;;;;5071412;28;19921;-64
2024/04/03 09:52:47;;;;;;;;;;;;;;;;;;5069277;28;19924;-64
2024/04/03 09:55:13;;;;;;;;;;;;;;;;;;5051602;28;19971;-65
2024/04/03 09:57:39;;;;;;;;;;;;;;;;;;5051510;28;19929;-65
2024/04/03 10:00:06;;;;;;;;;;;;;;;;;;5058226;28;20279;-65
2024/04/03 10:02:32;;;;;;;;;;;;;;;;;;5070152;28;19924;-65
2024/04/03 10:04:58;;;;;;;;;;;;;;;;;;5065070;28;20299;-65
2024/04/03 10:07:26;;;;;;;;;;;;;;;;;;5072090;28;19925;-66
2024/04/03 10:09:52;;;;;;;;;;;;;;;;;;5070195;28;20004;-65
2024/04/03 10:12:21;;;;;;;;;;;;;;;;;;5069461;28;19999;-66
2024/04/03 10:14:47;;;;;;;;;;;;;;;;;;5069733;28;20365;-65
2024/04/03 10:17:12;;;;;;;;;;;;;;;;;;5070603;28;19925;-66
2024/04/03 10:19:38;;;;;;;;;;;;;;;;;;5063614;28;19920;-66
2024/04/03 10:22:04;;;;;;;;;;;;;;;;;;5067617;28;19925;-65
2024/04/03 10:24:30;;;;;;;;;;;;;;;;;;5052805;28;20311;-65
2024/04/03 10:26:56;;;;;;;;;;;;;;;;;;5052491;28;19932;-65
2024/04/03 10:29:22;;;;;;;;;;;;;;;;;;5050930;28;19925;-65
2024/04/03 10:31:48;;;;;;;;;;;;;;;;;;5070103;28;19920;-65
2024/04/03 10:34:14;;;;;;;;;;;;;;;;;;5070855;28;19925;-66
2024/04/03 10:36:40;;;;;;;;;;;;;;;;;;5067654;28;19981;-67
2024/04/03 10:39:06;;;;;;;;;;;;;;;;;;5066648;28;19973;-67
2024/04/03 10:41:32;;;;;;;;;;;;;;;;;;5068370;28;20124;-66
2024/04/03 10:43:58;;;;;;;;;;;;;;;;;;5059428;28;20299;-66
2024/04/03 10:46:24;;;;;;;;;;;;;;;;;;5071153;28;19924;-66
2024/04/03 10:48:50;;;;;;;;;;;;;;;;;;5070924;28;19928;-66
2024/04/03 10:51:16;;;;;;;;;;;;;;;;;;5072054;28;19920;-67
2024/04/03 10:53:42;;;;;;;;;;;;;;;;;;5071126;28;20383;-66
2024/04/03 10:56:08;;;;;;;;;;;;;;;;;;5073590;28;19927;-67
2024/04/03 10:58:34;;;;;;;;;;;;;;;;;;5071256;28;20002;-67
2024/04/03 11:01:00;;;;;;;;;;;;;;;;;;5070864;28;20928;-67
2024/04/03 11:03:26;;;;;;;;;;;;;;;;;;5071927;28;19939;-67
2024/04/03 11:05:52;;;;;;;;;;;;;;;;;;5070608;28;20003;-67
2024/04/03 11:08:19;;;;;;;;;;;;;;;;;;5071654;28;19921;-67
2024/04/03 11:10:45;;;;;;;;;;;;;;;;;;5072122;28;19932;-67
2024/04/03 11:13:11;;;;;;;;;;;;;;;;;;5058802;28;19921;-67
2024/04/03 11:15:36;;;;;;;;;;;;;;;;;;5053248;28;20303;-67
2024/04/03 11:18:02;;;;;;;;;;;;;;;;;;5054894;28;19928;-66
2024/04/03 11:20:28;;;;;;;;;;;;;;;;;;5054940;28;19921;-67
2024/04/03 11:22:58;;;;;;;;;;;;;;;;;;5071158;28;20554;-66
2024/04/03 11:25:24;;;;;;;;;;;;;;;;;;5065783;28;19975;-66
2024/04/03 11:27:50;;;;;;;;;;;;;;;;;;5071767;28;19964;-66
2024/04/03 11:30:16;;;;;;;;;;;;;;;;;;5070949;28;20474;-66
2024/04/03 11:32:42;;;;;;;;;;;;;;;;;;5078588;28;20645;-66
2024/04/03 11:35:08;;;;;;;;;;;;;;;;;;5070948;28;19931;-66
2024/04/03 11:37:35;;;;;;;;;;;;;;;;;;5070185;28;20268;-66
2024/04/03 11:40:00;;;;;;;;;;;;;;;;;;5069935;28;19921;-67
2024/04/03 11:42:26;;;;;;;;;;;;;;;;;;5058118;28;20284;-67
2024/04/03 11:44:54;;;;;;;;;;;;;;;;;;5072788;28;19966;-66
2024/04/03 11:47:20;;;;;;;;;;;;;;;;;;5069631;28;19936;-67
2024/04/03 11:49:46;;;;;;;;;;;;;;;;;;5075319;28;19944;-66
2024/04/03 11:52:12;;;;;;;;;;;;;;;;;;5073525;28;20493;-66
2024/04/03 11:54:37;;;;;;;;;;;;;;;;;;5072361;28;19921;-66
2024/04/03 11:57:03;;;;;;;;;;;;;;;;;;5069319;28;19928;-67
2024/04/03 11:59:29;;;;;;;;;;;;;;;;;;5088469;28;19977;-66
2024/04/03 12:01:55;;;;;;;;;;;;;;;;;;5073537;28;19921;-66
2024/04/03 12:04:21;;;;;;;;;;;;;;;;;;5073034;28;20758;-66
2024/04/03 12:06:47;;;;;;;;;;;;;;;;;;5071562;28;19959;-66
2024/04/03 12:09:13;;;;;;;;;;;;;;;;;;5072192;28;19921;-66
2024/04/03 12:11:40;;;;;;;;;;;;;;;;;;5072336;28;20389;-66
2024/04/03 12:14:08;;;;;;;;;;;;;;;;;;5071080;28;19930;-66
2024/04/03 12:16:33;;;;;;;;;;;;;;;;;;5073190;28;19924;-66
2024/04/03 12:21:44;;;;;;;;;;;;;;;;;;5070521;28;20316;-65
2024/04/03 12:24:10;;;;;;;;;;;;;;;;;;5072583;28;19928;-65
2024/04/03 12:26:36;;;;;;;;;;;;;;;;;;5072844;28;19943;-65
2024/04/03 12:29:02;;;;;;;;;;;;;;;;;;5069672;28;19931;-64
2024/04/03 12:31:28;;;;;;;;;;;;;;;;;;5070786;28;20310;-65
2024/04/03 12:33:54;;;;;;;;;;;;;;;;;;5070380;28;20577;-65
2024/04/03 12:36:20;;;;;;;;;;;;;;;;;;5068481;28;19928;-64
2024/04/03 12:38:46;;;;;;;;;;;;;;;;;;5087769;28;20402;-64
2024/04/03 12:41:12;;;;;;;;;;;;;;;;;;5072365;28;19951;-66
2024/04/03 12:43:38;;;;;;;;;;;;;;;;;;5072901;28;20283;-65
2024/04/03 12:46:04;;;;;;;;;;;;;;;;;;5088565;28;19960;-65
2024/04/03 12:48:30;;;;;;;;;;;;;;;;;;5087929;28;19924;-65
2024/04/03 12:50:56;;;;;;;;;;;;;;;;;;5072167;28;19932;-65
2024/04/03 12:53:22;;;;;;;;;;;;;;;;;;5065139;28;19924;-66
2024/04/03 12:55:48;;;;;;;;;;;;;;;;;;5062698;28;19921;-66
2024/04/03 12:58:14;;;;;;;;;;;;;;;;;;5056092;28;20376;-66
2024/04/03 13:00:41;;;;;;;;;;;;;;;;;;5054844;28;19931;-66
2024/04/03 13:03:07;;;;;;;;;;;;;;;;;;5068346;28;19928;-66
2024/04/03 13:05:33;;;;;;;;;;;;;;;;;;5064210;28;19929;-66
2024/04/03 13:07:59;;;;;;;;;;;;;;;;;;5066690;28;20015;-66
2024/04/03 13:10:25;;;;;;;;;;;;;;;;;;5070918;28;19927;-66
2024/04/03 13:12:51;;;;;;;;;;;;;;;;;;5064513;28;19925;-66
2024/04/03 13:15:17;;;;;;;;;;;;;;;;;;5066861;28;20283;-66
2024/04/03 13:17:43;;;;;;;;;;;;;;;;;;5052274;28;19921;-66
2024/04/03 13:20:09;;;;;;;;;;;;;;;;;;5050135;28;19987;-67
2024/04/03 13:22:35;;;;;;;;;;;;;;;;;;5064224;28;20303;-66
2024/04/03 13:25:01;;;;;;;;;;;;;;;;;;5066601;28;19920;-66
2024/04/03 13:27:27;;;;;;;;;;;;;;;;;;5062593;28;20565;-66
2024/04/03 13:29:53;;;;;;;;;;;;;;;;;;5070314;28;19931;-66
2024/04/03 13:32:19;;;;;;;;;;;;;;;;;;5076325;28;19928;-66
2024/04/03 13:34:45;;;;;;;;;;;;;;;;;;5068779;28;19920;-65
2024/04/03 13:37:11;;;;;;;;;;;;;;;;;;5062483;28;19939;-65
2024/04/03 13:39:37;;;;;;;;;;;;;;;;;;5070605;28;19924;-66
2024/04/03 13:42:03;;;;;;;;;;;;;;;;;;5069142;28;19924;-66
2024/04/03 13:44:29;;;;;;;;;;;;;;;;;;5080120;28;20343;-66
2024/04/03 13:46:55;;;;;;;;;;;;;;;;;;5081994;28;19920;-64
2024/04/03 13:49:21;;;;;;;;;;;;;;;;;;5075275;28;20386;-64
2024/04/03 13:51:47;;;;;;;;;;;;;;;;;;5051865;28;19924;-64
2024/04/03 13:54:14;;;;;;;;;;;;;;;;;;5064248;28;19959;-64
2024/04/03 13:56:40;;;;;;;;;;;;;;;;;;5070788;28;19964;-64
2024/04/03 13:59:06;;;;;;;;;;;;;;;;;;5070792;28;19927;-64
2024/04/03 14:01:32;;;;;;;;;;;;;;;;;;5070247;28;19948;-63
2024/04/03 14:03:58;;;;;;;;;;;;;;;;;;5062212;28;20277;-64
2024/04/03 14:06:24;;;;;;;;;;;;;;;;;;5052073;28;19928;-64
2024/04/03 14:08:52;;;;;;;;;;;;;;;;;;5068831;28;19924;-64
2024/04/03 14:11:18;;;;;;;;;;;;;;;;;;5068981;28;19927;-63
2024/04/03 14:13:48;;;;;;;;;;;;;;;;;;5065249;28;19925;-63
2024/04/03 14:16:13;;;;;;;;;;;;;;;;;;5063106;28;20283;-63
2024/04/03 14:18:39;;;;;;;;;;;;;;;;;;5072854;28;19925;-63
2024/04/03 14:21:05;;;;;;;;;;;;;;;;;;5070383;28;19921;-63
2024/04/03 14:23:31;;;;;;;;;;;;;;;;;;5071630;28;19936;-64
2024/04/03 14:25:57;;;;;;;;;;;;;;;;;;5072492;28;19935;-64
2024/04/03 14:28:23;;;;;;;;;;;;;;;;;;5088473;28;19924;-63
2024/04/03 14:30:49;;;;;;;;;;;;;;;;;;5072689;28;19924;-64
2024/04/03 14:33:15;;;;;;;;;;;;;;;;;;5072188;28;19966;-63
2024/04/03 14:35:41;;;;;;;;;;;;;;;;;;5072590;28;19971;-64
2024/04/03 14:38:07;;;;;;;;;;;;;;;;;;5071907;28;20298;-64
2024/04/03 14:40:33;;;;;;;;;;;;;;;;;;5079054;22;20647;-64
2024/04/03 14:43:04;;;;;;;;;;;;;;;;;;5038376;28;19936;-64
2024/04/03 14:45:30;;;;;;;;;;;;;;;;;;5023749;28;20392;-64
2024/04/03 14:47:55;;;;;;;;;;;;;;;;;;5046493;28;19921;-64
2024/04/03 14:50:22;;;;;;;;;;;;;;;;;;5051225;28;19921;-64
2024/04/03 14:52:49;;;;;;;;;;;;;;;;;;5042915;28;19925;-64
2024/04/03 14:55:15;;;;;;;;;;;;;;;;;;5031703;28;19925;-64
2024/04/03 14:57:41;;;;;;;;;;;;;;;;;;5031492;28;19975;-64
2024/04/03 15:00:07;;;;;;;;;;;;;;;;;;5031238;28;19921;-64
2024/04/03 15:02:33;;;;;;;;;;;;;;;;;;5031493;28;19925;-64
2024/04/03 15:04:59;;;;;;;;;;;;;;;;;;5030976;28;19959;-69
2024/04/03 15:07:25;;;;;;;;;;;;;;;;;;5039887;28;20932;-67
2024/04/03 15:09:53;;;;;;;;;;;;;;;;;;5046946;28;20323;-64
2024/04/03 15:12:19;;;;;;;;;;;;;;;;;;5050679;28;19967;-64
2024/04/03 15:14:49;;;;;;;;;;;;;;;;;;5045331;28;20147;-62
2024/04/03 15:17:15;;;;;;;;;;;;;;;;;;5051758;28;20015;-63
2024/04/03 15:19:41;;;;;;;;;;;;;;;;;;5063145;28;19966;-63
2024/04/03 15:22:07;;;;;;;;;;;;;;;;;;5047177;28;19970;-63
2024/04/03 15:24:33;;;;;;;;;;;;;;;;;;5058752;28;19924;-63
2024/04/03 15:26:58;;;;;;;;;;;;;;;;;;5053008;28;19929;-63
2024/04/03 15:29:24;;;;;;;;;;;;;;;;;;5014799;28;20257;-63
2024/04/03 15:31:50;;;;;;;;;;;;;;;;;;5050792;28;19975;-63
2024/04/03 15:34:16;;;;;;;;;;;;;;;;;;5054090;28;19928;-63
2024/04/03 15:36:42;;;;;;;;;;;;;;;;;;5060978;28;19931;-63
2024/04/03 15:39:09;;;;;;;;;;;;;;;;;;5057244;28;19985;-63
2024/04/03 15:41:35;;;;;;;;;;;;;;;;;;5053982;28;19929;-63
2024/04/03 15:44:01;;;;;;;;;;;;;;;;;;5054517;28;19970;-63
2024/04/03 15:46:27;;;;;;;;;;;;;;;;;;5039488;28;20015;-63
2024/04/03 15:48:53;;;;;;;;;;;;;;;;;;5061377;28;20020;-64
2024/04/03 15:51:19;;;;;;;;;;;;;;;;;;5049174;28;19935;-64
2024/04/03 15:53:45;;;;;;;;;;;;;;;;;;5039205;28;20287;-64
2024/04/03 15:56:11;;;;;;;;;;;;;;;;;;5062237;28;19928;-64
2024/04/03 15:58:38;;;;;;;;;;;;;;;;;;5056246;28;19921;-64
2024/04/03 16:01:04;;;;;;;;;;;;;;;;;;5047792;28;19929;-64
2024/04/03 16:03:30;;;;;;;;;;;;;;;;;;5039045;28;19948;-65
2024/04/03 16:05:56;;;;;;;;;;;;;;;;;;5047290;28;19928;-64
2024/04/03 16:08:22;;;;;;;;;;;;;;;;;;5057423;28;19921;-65
2024/04/03 16:10:49;;;;;;;;;;;;;;;;;;5033364;28;19921;-64
2024/04/03 16:13:15;;;;;;;;;;;;;;;;;;5045170;28;19925;-64
2024/04/03 16:15:41;;;;;;;;;;;;;;;;;;5049419;28;20307;-63
2024/04/03 16:18:07;;;;;;;;;;;;;;;;;;5053854;28;20268;-63
2024/04/03 16:20:33;;;;;;;;;;;;;;;;;;5041715;28;19936;-63
2024/04/03 16:22:59;;;;;;;;;;;;;;;;;;5041931;28;19929;-63
2024/04/03 16:25:25;;;;;;;;;;;;;;;;;;5052622;28;19935;-63
2024/04/03 16:27:51;;;;;;;;;;;;;;;;;;5046017;28;19963;-63
2024/04/03 16:30:17;;;;;;;;;;;;;;;;;;5057750;28;19932;-63
2024/04/03 16:32:44;;;;;;;;;;;;;;;;;;5050722;28;19967;-63
2024/04/03 16:35:14;;;;;;;;;;;;;;;;;;5051559;28;20389;-64
2024/04/03 16:37:40;;;;;;;;;;;;;;;;;;5035251;28;19932;-63
2024/04/03 16:40:08;;;;;;;;;;;;;;;;;;5033002;28;19929;-63
2024/04/03 16:42:34;;;;;;;;;;;;;;;;;;5060619;28;20015;-63
2024/04/03 16:45:00;;;;;;;;;;;;;;;;;;5042989;28;20335;-64